Ames, Texas
Current Conditions -  °F | °C
As of 5:15 AM on Sunday 23 Nov 2014 (Local Time) from KBMT Reporting Station
Clear Clear  
Wind Chill: 15°   Ceiling: Unl
Heat Index: 15°   Visibility: 10mi
Dew Point: 15°   Wind: 9mph
Humidity: 97%   Direction: 220°SW
Pressure: 29.64"   Gusts: NA
Location:  30.0821°N, 94.7401°W
Report Text: KBMT 231115Z AUTO 22008KT 10SM CLR 15/15 A2964 RMK AO2 T01510146
Loading
Personal Weather Stations






























Interactive Weather Map New forecast layout! Learn more

10-Day Weather Forecast

Advertisements
Track Severe Weather on mobile